Home > Products > Valid Products > TAF

000
FTUS41 KCLE 052335
TAFFDY
TAF
KFDY 052335Z 0600/0624 03010KT P6SM BKN080
     FM060400 35005KT P6SM FEW250
     FM061700 33008KT P6SM FEW050 SCT250=



000
FTUS41 KCLE 052335
TAFMFD
TAF
KMFD 052335Z 0600/0624 35010KT P6SM BKN080
     FM060600 33005KT P6SM FEW250
      TEMPO 0610/0612 5SM BR
     FM061300 34010KT P6SM SCT250
     FM061700 34010G18KT P6SM FEW045 SCT250=



000
FTUS41 KCLE 052335
TAFCAK
TAF
KCAK 052335Z 0600/0624 36012KT P6SM BKN080
     FM060600 36008KT P6SM SCT250
      TEMPO 0610/0612 4SM BR
     FM061600 01012G20KT P6SM FEW050 SCT250=



000
FTUS41 KCLE 052335
TAFYNG
TAF
KYNG 052335Z 0600/0624 36012KT P6SM FEW030 SCT100
     FM060300 35005KT P6SM BKN100
     FM061000 35004KT P6SM SCT250
      TEMPO 0610/0612 4SM BR
     FM061600 35012G20KT P6SM FEW050 SCT250=



000
FTUS41 KCLE 052335
TAFCLE
TAF
KCLE 052335Z 0600/0706 36010KT P6SM BKN080
     FM060500 35005KT P6SM SCT250
     FM061300 35010KT P6SM SCT250
     FM061900 35012G20KT P6SM SCT250
     FM062300 34008KT P6SM FEW250=



000
FTUS41 KCLE 052335
TAFERI
TAF
KERI 052335Z 0600/0624 03010KT P6SM SCT080
     FM060400 36005KT P6SM SCT080
     FM061500 01010KT P6SM FEW250
     FM061900 33012G20KT P6SM SCT250
     FM062300 32008KT P6SM SCT250=



000
FTUS41 KCLE 052335
TAFTOL
TAF
KTOL 052335Z 0600/0624 02010KT P6SM SCT080
     FM060300 35005KT P6SM FEW250
     FM061800 33008KT P6SM FEW050 SCT250=



000
FTUS41 KCLE 052110 AAB
TAFCLE
TAF AMD
KCLE 052110Z 0521/0624 02015KT P6SM FEW045
     FM060000 36008KT P6SM SCT045
     FM060700 34005KT P6SM SCT250
     FM061900 30010KT P6SM SCT100 BKN250=



000
FTUS41 KCLE 051921 AAA
TAFMFD
TAF AMD
KMFD 051921Z 0519/0618 36010KT P6SM SCT008 OVC015
     FM052000 36011KT P6SM SCT015 SCT035
     FM060000 36010KT P6SM SCT050
     FM060700 35006KT P6SM SCT250=



000
FTUS41 KCLE 051919 AAA
TAFCAK
TAF AMD
KCAK 051919Z 0519/0618 35011KT P6SM VCSH SCT020 BKN040
     FM060100 36007KT P6SM BKN040
      TEMPO 0609/0611 5SM BR
     FM061200 35010KT P6SM SCT120 SCT250=



000
FTUS41 KCLE 051917 AAA
TAFCLE
TAF AMD
KCLE 051917Z 0519/0624 02015KT P6SM SCT020 SCT045
     FM060000 36008KT P6SM SCT045
     FM060700 34005KT P6SM SCT250
     FM061900 30010KT P6SM SCT100 BKN250=



000
FTUS41 KCLE 051746 CCA
TAFCLE
TAF COR
KCLE 051746Z 0518/0624 02012G22KT P6SM SCT008 OVC012
     FM052100 01015KT P6SM SCT012 BKN045
     FM060000 36008KT P6SM BKN045
     FM060700 34005KT P6SM SCT250
     FM061900 30010KT P6SM SCT100 BKN250=



000
FTUS41 KCLE 051735
TAFYNG
TAF
KYNG 051735Z 0518/0618 02011KT P6SM VCSH BKN020 OVC060
     FM052000 36011KT P6SM OVC040
     FM061400 35010KT P6SM SCT120 SCT250=



000
FTUS41 KCLE 051735
TAFTOL
TAF
KTOL 051735Z 0518/0618 02015KT P6SM BKN050
     FM060000 01006KT P6SM SKC=



000
FTUS41 KCLE 051735
TAFMFD
TAF
KMFD 051735Z 0518/0618 36010KT 6SM BR BKN008 OVC015
     FM051900 36010KT P6SM SCT008 OVC015
     FM052100 01012G22KT P6SM SCT015 OVC035
     FM060000 36010KT P6SM BKN050
     FM060700 35006KT P6SM SCT250=



000
FTUS41 KCLE 051735
TAFCAK
TAF
KCAK 051735Z 0518/0618 01011KT P6SM VCSH SCT012 BKN040
      TEMPO 0518/0520 5SM -SHRA BKN012 OVC040
     FM060100 36007KT P6SM BKN040
      TEMPO 0609/0611 5SM BR
     FM061200 35010KT P6SM SCT120 SCT250=



000
FTUS41 KCLE 051735
TAFERI
TAF
KERI 051735Z 0518/0618 03012G20KT P6SM BKN012 OVC035
      TEMPO 0518/0520 SCT012 BKN035
     FM052000 03012G20KT P6SM SCT012 BKN035
     FM060100 VRB05KT P6SM BKN035
     FM061500 35010KT P6SM SCT120 SCT250=



000
FTUS41 KCLE 051735
TAFFDY
TAF
KFDY 051735Z 0518/0618 02015KT P6SM SCT020 BKN030
     FM051900 02015KT P6SM SCT030 BKN040
     FM060100 01006KT P6SM SKC=



000
FTUS41 KCLE 051735
TAFCLE
TAF
KCLE 051735Z 0518/0624 02012G22KT P6SM BKN008 OVC012
      TEMPO 0518/0519 SCT008 BKN012
     FM051900 02012G22KT P6SM BKN012
     FM052100 01015KT P6SM SCT012 BKN045
     FM060000 36008KT P6SM BKN045
     FM060700 34005KT P6SM SCT250
     FM061900 30010KT P6SM SCT100 BKN250=



000
FTUS41 KCLE 051500 AAB
TAFFDY
TAF AMD
KFDY 051500Z 0515/0612 04010G20KT P6SM SCT007 OVC012
     FM051600 03010G20KT P6SM SCT012 BKN025
     FM051700 02015G25KT P6SM BKN035
     FM060100 01006KT P6SM SKC=



000
FTUS41 KCLE 051451 AAB
TAFCLE
TAF AMD
KCLE 051451Z 0515/0618 02012KT P6SM SCT008 OVC012
      TEMPO 0515/0517 BKN008 OVC012
     FM051800 02012G22KT P6SM SCT025 OVC035
     FM060000 36008KT P6SM BKN050
     FM060700 33004KT P6SM SCT250=



000
FTUS41 KCLE 051449 AAA
TAFCAK
TAF AMD
KCAK 051449Z 0515/0612 33006KT 6SM BR VCSH SCT008 OVC035
      TEMPO 0515/0517 BKN030 OVC060
     FM051700 36012KT P6SM SCT012 BKN030
     FM052000 02012G22KT P6SM OVC035
     FM060000 35010KT P6SM BKN050
     FM061000 35006KT P6SM SCT250=



000
FTUS41 KCLE 051449 AAA
TAFCAK
TAF AMD
KCAK 051449Z 0515/0612 33006KT 6SM BR VCSH SCT008 OVC035
      TEMPO 0515/0517 BKN030 OVC060
     FM051700 36012KT P6SM SCT012 BKN030
     FM052000 02012G22KT P6SM OVC035
     FM060000 35010KT P6SM BKN050
     FM061000 35006KT P6SM SCT250=



000
FTUS41 KCLE 051316 AAA
TAFFDY
TAF AMD
KFDY 051316Z 0513/0612 34010KT 5SM BR SCT007 OVC012
     FM051500 01010KT P6SM SCT012 BKN025
     FM051700 02015G25KT P6SM BKN035
     FM060100 01006KT P6SM SKC=



000
FTUS41 KCLE 051316 AAA
TAFFDY
TAF AMD
KFDY 051316Z 0513/0612 34010KT 5SM BR SCT007 OVC012
     FM051500 01010KT P6SM SCT012 BKN025
     FM051700 02015G25KT P6SM BKN035
     FM060100 01006KT P6SM SKC=



000
FTUS41 KCLE 051314 AAA
TAFERI
TAF AMD
KERI 051314Z 0513/0612 04012KT 3SM BR OVC003
      TEMPO 0514/0516 BKN007 OVC010
     FM051600 03015KT P6SM BKN012
     FM051800 02012G20KT P6SM BKN012 OVC035
     FM052000 03012G20KT P6SM SCT012 BKN035
     FM060000 36005KT P6SM BKN035=



000
FTUS41 KCLE 051314 AAA
TAFERI
TAF AMD
KERI 051314Z 0513/0612 04012KT 3SM BR OVC003
      TEMPO 0514/0516 BKN007 OVC010
     FM051600 03015KT P6SM BKN012
     FM051800 02012G20KT P6SM BKN012 OVC035
     FM052000 03012G20KT P6SM SCT012 BKN035
     FM060000 36005KT P6SM BKN035=



000
FTUS41 KCLE 051255 AAA
TAFTOL
TAF AMD
KTOL 051255Z 0513/0612 01010KT P6SM SCT012 OVC025
      TEMPO 0514/0516 SCT025 SCT035
     FM051600 02015G25KT P6SM BKN035
     FM060100 01006KT P6SM SKC=



000
FTUS41 KCLE 051255 AAA
TAFTOL
TAF AMD
KTOL 051255Z 0513/0612 01010KT P6SM SCT012 OVC025
      TEMPO 0514/0516 SCT025 SCT035
     FM051600 02015G25KT P6SM BKN035
     FM060100 01006KT P6SM SKC=



000
FTUS41 KCLE 051131 CCA
TAFTOL
TAF COR
KTOL 051131Z 0512/0612 36006KT P6SM BKN008
      TEMPO 0512/0514 5SM BR SCT008
     FM051400 36010KT P6SM BKN012 OVC025
     FM051600 02015G25KT P6SM OVC035
     FM060100 01006KT P6SM SKC=



000
FTUS41 KCLE 051131 CCA
TAFTOL
TAF COR
KTOL 051131Z 0512/0612 36006KT P6SM BKN008
      TEMPO 0512/0514 5SM BR SCT008
     FM051400 36010KT P6SM BKN012 OVC025
     FM051600 02015G25KT P6SM OVC035
     FM060100 01006KT P6SM SKC=



000
FTUS41 KCLE 051127
TAFERI
TAF
KERI 051127Z 0512/0612 06006KT P6SM SCT007 OVC060
      TEMPO 0512/0516 BKN007
     FM051700 02012G20KT P6SM OVC050
     FM052000 35006KT P6SM BKN050=



000
FTUS41 KCLE 051127
TAFCAK
TAF
KCAK 051127Z 0512/0612 33006KT 4SM BR BKN008 OVC012
      TEMPO 0512/0514 2SM -SHRA BR
     FM051700 36012KT P6SM SCT008 OVC012
     FM052000 02012G22KT P6SM OVC035
     FM060000 35010KT P6SM BKN050
     FM061000 35006KT P6SM SCT250=



000
FTUS41 KCLE 051127
TAFCLE
TAF
KCLE 051127Z 0512/0618 34008KT P6SM -SHRA SCT008 OVC060
      TEMPO 0512/0515 BKN008
     FM051500 02012KT P6SM SCT008 OVC012
     FM051800 02012G22KT P6SM SCT025 OVC035
     FM060000 36008KT P6SM BKN050
     FM060700 33004KT P6SM SCT250=



000
FTUS41 KCLE 051127
TAFMFD
TAF
KMFD 051127Z 0512/0612 32010KT 4SM -SHRA BR BKN008 OVC015
      TEMPO 0512/0514 2SM BR BKN004
     FM051700 36010KT P6SM SCT008 OVC015
     FM052000 01012G22KT P6SM SCT015 OVC035
     FM060000 36010KT P6SM BKN050
     FM060700 35006KT P6SM SCT250=



000
FTUS41 KCLE 051127
TAFYNG
TAF
KYNG 051127Z 0512/0612 04006KT 4SM BR SCT008 OVC060
      TEMPO 0512/0515 2SM BR BKN008
     FM051500 02012KT P6SM SCT008 OVC012
     FM052000 02012G22KT P6SM OVC035
     FM060000 35012KT P6SM BKN050
     FM061000 35006KT P6SM SCT250=



000
FTUS41 KCLE 051127
TAFTOL
TAF
KTOL 051127Z 0512/0612 36006KT P6SM BKN008 OVC012
      TEMPO 0512/0514 5SM BR
     FM051400 36010KT P6SM BKN012 OVC025
     FM051600 02015G25KT P6SM OVC035
     FM060100 01006KT P6SM SKC=



000
FTUS41 KCLE 051127
TAFFDY
TAF
KFDY 051127Z 0512/0612 31006KT 6SM -SHRA BR BKN007 OVC012
      TEMPO 0512/0515 3SM BR BKN004
     FM051500 36008KT P6SM BKN012 OVC025
     FM051700 02015G25KT P6SM OVC035
     FM060100 01006KT P6SM SKC=



000
FTUS41 KCLE 051127
TAFERI
TAF
KERI 051127Z 0512/0612 06006KT P6SM SCT007 OVC060
      TEMPO 0512/0516 BKN007
     FM051700 02012G20KT P6SM OVC050
     FM052000 35006KT P6SM BKN050=



000
FTUS41 KCLE 051127
TAFTOL
TAF
KTOL 051127Z 0512/0612 36006KT P6SM BKN008 OVC012
      TEMPO 0512/0514 5SM BR
     FM051400 36010KT P6SM BKN012 OVC025
     FM051600 02015G25KT P6SM OVC035
     FM060100 01006KT P6SM SKC=



000
FTUS41 KCLE 051127
TAFCLE
TAF
KCLE 051127Z 0512/0618 34008KT P6SM -SHRA SCT008 OVC060
      TEMPO 0512/0515 BKN008
     FM051500 02012KT P6SM SCT008 OVC012
     FM051800 02012G22KT P6SM SCT025 OVC035
     FM060000 36008KT P6SM BKN050
     FM060700 33004KT P6SM SCT250=



000
FTUS41 KCLE 051127
TAFMFD
TAF
KMFD 051127Z 0512/0612 32010KT 4SM -SHRA BR BKN008 OVC015
      TEMPO 0512/0514 2SM BR BKN004
     FM051700 36010KT P6SM SCT008 OVC015
     FM052000 01012G22KT P6SM SCT015 OVC035
     FM060000 36010KT P6SM BKN050
     FM060700 35006KT P6SM SCT250=



000
FTUS41 KCLE 051127
TAFFDY
TAF
KFDY 051127Z 0512/0612 31006KT 6SM -SHRA BR BKN007 OVC012
      TEMPO 0512/0515 3SM BR BKN004
     FM051500 36008KT P6SM BKN012 OVC025
     FM051700 02015G25KT P6SM OVC035
     FM060100 01006KT P6SM SKC=



000
FTUS41 KCLE 051127
TAFCAK
TAF
KCAK 051127Z 0512/0612 33006KT 4SM BR BKN008 OVC012
      TEMPO 0512/0514 2SM -SHRA BR
     FM051700 36012KT P6SM SCT008 OVC012
     FM052000 02012G22KT P6SM OVC035
     FM060000 35010KT P6SM BKN050
     FM061000 35006KT P6SM SCT250=



000
FTUS41 KCLE 051127
TAFYNG
TAF
KYNG 051127Z 0512/0612 04006KT 4SM BR SCT008 OVC060
      TEMPO 0512/0515 2SM BR BKN008
     FM051500 02012KT P6SM SCT008 OVC012
     FM052000 02012G22KT P6SM OVC035
     FM060000 35012KT P6SM BKN050
     FM061000 35006KT P6SM SCT250=



000
FTUS41 KCLE 050911 AAA
TAFTOL
TAF AMD
KTOL 050911Z 0509/0606 32006KT P6SM BKN008 OVC012
      TEMPO 0509/0510 BKN005
     FM051300 36010KT P6SM SCT012 OVC025
     FM051600 02015G25KT P6SM OVC050
     FM060000 01008KT P6SM SKC=



000
FTUS41 KCLE 050907 AAA
TAFERI
TAF AMD
KERI 050907Z 0509/0606 06006KT P6SM SCT015 OVC060
     FM051700 02012G20KT P6SM OVC025
     FM052000 35006KT P6SM OVC050=



000
FTUS41 KCLE 050907 AAA
TAFERI
TAF AMD
KERI 050907Z 0509/0606 06006KT P6SM SCT015 OVC060
     FM051700 02012G20KT P6SM OVC025
     FM052000 35006KT P6SM OVC050=



000
FTUS41 KCLE 050901 AAA
TAFCAK
TAF AMD
KCAK 050901Z 0509/0606 33006KT 4SM BR BKN008 OVC012
      TEMPO 0510/0514 2SM -SHRA BR
     FM051600 36012KT P6SM SCT008 OVC012
     FM052000 02014G22KT P6SM OVC035
     FM060000 35012KT P6SM BKN050=



000
FTUS41 KCLE 050859 AAB
TAFCLE
TAF AMD
KCLE 050859Z 0509/0612 31006KT P6SM BKN005 OVC012
     FM051000 34008KT 5SM BR BKN008 OVC012
     FM051400 02012KT P6SM SCT008 OVC012
     FM051800 02012G22KT P6SM SCT025 OVC035
     FM060000 36008KT P6SM BKN050
     FM060600 33004KT P6SM SCT050=



000
FTUS41 KCLE 050803 AAA
TAFYNG
TAF AMD
KYNG 050803Z 0508/0606 32006KT P6SM -SHRA SCT012 OVC050
     FM051000 04006KT 4SM BR SCT008 OVC012
      TEMPO 0510/0513 2SM BR BKN008
     FM051600 02012KT P6SM SCT008 OVC012
     FM052000 02014G22KT P6SM OVC035
     FM060000 35012KT P6SM BKN050=



000
FTUS41 KCLE 050540
TAFTOL
TAF
KTOL 050540Z 0506/0606 32006KT 5SM -SHRA BR SCT008 OVC012
      TEMPO 0507/0510 3SM BR BKN008
     FM051000 36010KT P6SM SCT012 OVC025
     FM051600 02015G25KT P6SM OVC050
     FM060000 01008KT P6SM SKC=



000
FTUS41 KCLE 050540
TAFERI
TAF
KERI 050540Z 0506/0606 06006KT P6SM VCSH SCT015 OVC050
     FM050900 06006KT P6SM BKN015 OVC025
      TEMPO 0510/0512 4SM BR
     FM051700 02012G20KT P6SM OVC025
     FM052000 35006KT P6SM OVC050=



000
FTUS41 KCLE 050540
TAFMFD
TAF
KMFD 050540Z 0506/0606 30006KT 4SM -SHRA BR BKN008 OVC015
      TEMPO 0506/0508 SCT008
     FM051000 35010KT 4SM BR BKN008 OVC015
     FM051500 36010KT P6SM SCT008 OVC015
     FM051900 01012G22KT P6SM SCT015 OVC035
     FM060000 36010KT P6SM BKN050=



000
FTUS41 KCLE 050540
TAFYNG
TAF
KYNG 050540Z 0506/0606 32006KT P6SM -SHRA SCT015 OVC060
     FM050800 04006KT 4SM BR BKN008 OVC012
      TEMPO 0508/0512 2SM BR
     FM051600 02012KT P6SM SCT008 OVC012
     FM052000 02014G22KT P6SM OVC035
     FM060000 35012KT P6SM BKN050=



000
FTUS41 KCLE 050540
TAFCAK
TAF
KCAK 050540Z 0506/0606 30006KT 4SM -SHRA BR BKN008 OVC012
      TEMPO 0506/0510 OVC003
     FM051000 36006KT 4SM BR BKN008 OVC012
      TEMPO 0510/0514 2SM BR
     FM051600 02012KT P6SM SCT008 OVC012
     FM052000 02014G22KT P6SM OVC035
     FM060000 35012KT P6SM BKN050=



000
FTUS41 KCLE 050540
TAFFDY
TAF
KFDY 050540Z 0506/0606 31006KT P6SM SCT012 OVC035
      TEMPO 0506/0508 BKN012
     FM050800 36006KT P6SM SCT008 OVC012
      TEMPO 0510/0512 5SM -SHRA BR BKN008
     FM051200 36012KT P6SM SCT012 OVC025
     FM051600 02015G25KT P6SM OVC035
     FM060000 01008KT P6SM SKC=



000
FTUS41 KCLE 050540
TAFCLE
TAF
KCLE 050540Z 0506/0612 34006KT P6SM -SHRA BKN008 OVC012
      TEMPO 0506/0509 BKN004
     FM050900 02008KT 5SM BR BKN008 OVC012
     FM051400 02012KT P6SM SCT008 OVC012
     FM051800 02012G22KT P6SM SCT025 OVC035
     FM060000 36008KT P6SM BKN050
     FM060600 33004KT P6SM SCT050=



000
FTUS41 KCLE 050346 AAB
TAFCLE
TAF AMD
KCLE 050346Z 0504/0606 24004KT 6SM -SHRA BKN015 OVC040
      TEMPO 0504/0506 BKN008
     FM050600 33006KT 5SM BR BKN008 OVC012
     FM051500 02012KT P6SM SCT008 OVC015
     FM052000 02014G22KT P6SM OVC035=



000
FTUS41 KCLE 050340 AAA
TAFCAK
TAF AMD
KCAK 050340Z 0504/0524 27006KT 6SM -SHRA BR SCT015 OVC040
      TEMPO 0504/0506 5SM -SHRA BKN015
     FM050600 28006KT 3SM BR SCT008 OVC012
      TEMPO 0508/0512 2SM BR OVC008
     FM051600 02012KT P6SM SCT008 OVC012
     FM052100 02014G22KT P6SM OVC025=



000
FTUS41 KCLE 050340 AAA
TAFCAK
TAF AMD
KCAK 050340Z 0504/0524 27006KT 6SM -SHRA BR SCT015 OVC040
      TEMPO 0504/0506 5SM -SHRA BKN015
     FM050600 28006KT 3SM BR SCT008 OVC012
      TEMPO 0508/0512 2SM BR OVC008
     FM051600 02012KT P6SM SCT008 OVC012
     FM052100 02014G22KT P6SM OVC025=



000
FTUS41 KCLE 050338 AAA
TAFMFD
TAF AMD
KMFD 050338Z 0504/0524 27006KT P6SM SCT008 BKN015 OVC025
      TEMPO 0508/0512 5SM -SHRA BKN008
     FM051300 35010KT 5SM BR SCT006 OVC012
     FM051800 01014G22KT P6SM SCT012 OVC025=



000
FTUS41 KCLE 050338 AAA
TAFMFD
TAF AMD
KMFD 050338Z 0504/0524 27006KT P6SM SCT008 BKN015 OVC025
      TEMPO 0508/0512 5SM -SHRA BKN008
     FM051300 35010KT 5SM BR SCT006 OVC012
     FM051800 01014G22KT P6SM SCT012 OVC025=



000
FTUS41 KCLE 050303 AAA
TAFCLE
TAF AMD
KCLE 050303Z 0503/0606 24004KT 6SM -SHRA BKN015 OVC040
     FM050600 01006KT 5SM BR SCT008 OVC012
      TEMPO 0509/0513 OVC008
     FM051600 02012KT P6SM SCT012 OVC025
     FM052000 02014G22KT P6SM OVC035=



000
FTUS41 KCLE 050303 AAA
TAFCLE
TAF AMD
KCLE 050303Z 0503/0606 24004KT 6SM -SHRA BKN015 OVC040
     FM050600 01006KT 5SM BR SCT008 OVC012
      TEMPO 0509/0513 OVC008
     FM051600 02012KT P6SM SCT012 OVC025
     FM052000 02014G22KT P6SM OVC035=



000
FTUS41 KCLE 042337
TAFERI
TAF
KERI 042337Z 0500/0524 04010KT P6SM SCT050 BKN120
     FM050600 06006KT P6SM VCSH SCT015 OVC025
     FM050900 06006KT P6SM VCSH OVC015
     FM051700 02012KT P6SM OVC025=



000
FTUS41 KCLE 042337
TAFYNG
TAF
KYNG 042337Z 0500/0524 22006KT P6SM VCSH SCT025 OVC045
     FM050400 02006KT 3SM -SHRA BR SCT015 OVC025
     FM050700 04006KT 3SM BR SCT008 OVC012
      TEMPO 0508/0512 2SM BR OVC008
     FM051700 02012KT P6SM SCT008 OVC012
     FM052100 02014G22KT P6SM OVC025=



000
FTUS41 KCLE 042337
TAFFDY
TAF
KFDY 042337Z 0500/0524 30008KT P6SM SCT012 OVC025
     FM050500 36006KT 5SM -SHRA BR SCT008 OVC012
      TEMPO 0507/0511 BKN008
     FM051100 36012KT P6SM SCT012 OVC025
     FM051600 02015G25KT P6SM OVC035=



000
FTUS41 KCLE 042337
TAFCLE
TAF
KCLE 042337Z 0500/0606 22006KT 6SM -SHRA OVC040
      TEMPO 0500/0503 5SM -SHRA OVC025
     FM050300 14004KT 6SM -SHRA SCT012 OVC025
     FM050700 01006KT 5SM BR SCT008 OVC012
      TEMPO 0511/0514 OVC008
     FM051600 02012KT P6SM SCT012 OVC025
     FM052000 02014G22KT P6SM OVC035=



000
FTUS41 KCLE 042337
TAFTOL
TAF
KTOL 042337Z 0500/0524 28008KT P6SM SCT012 OVC025
     FM050400 34006KT 5SM -SHRA BR SCT008 OVC012
     FM051000 36012G18KT P6SM SCT008 BKN012 OVC025
     FM051600 02015G25KT P6SM OVC035=



000
FTUS41 KCLE 042337
TAFCAK
TAF
KCAK 042337Z 0500/0524 27007KT 6SM -SHRA BR OVC050
     FM050300 35004KT 3SM -SHRA BR SCT015 OVC025
     FM050600 02006KT 3SM BR SCT008 OVC012
      TEMPO 0508/0512 2SM BR OVC008
     FM051600 02012KT P6SM SCT008 OVC012
     FM052100 02014G22KT P6SM OVC025=



000
FTUS41 KCLE 042337
TAFMFD
TAF
KMFD 042337Z 0500/0524 27006KT 6SM -SHRA BKN008 OVC012
      TEMPO 0500/0504 5SM -SHRA SCT008
     FM051200 35010KT 5SM -SHRA SCT006 OVC012
     FM051800 01014G22KT P6SM SCT012 OVC025=



000
FTUS41 KCLE 042112 AAA
TAFMFD
TAF AMD
KMFD 042112Z 0421/0518 24010KT 6SM -SHRA SCT015 OVC030
      TEMPO 0421/0501 3SM -SHRA OVC015
     FM050100 25007KT 6SM BR OVC015
     FM050400 30007KT 3SM BR OVC008
     FM051200 01010KT P6SM SCT012 BKN020
     FM051700 02012KT P6SM BKN035=



000
FTUS41 KCLE 042059 AAC
TAFCLE
TAF AMD
KCLE 042059Z 0421/0524 22007KT 6SM -SHRA OVC040
      TEMPO 0421/0501 3SM -SHRA OVC025
     FM050200 02007KT P6SM OVC015
      TEMPO 0511/0514 BKN008 OVC015
     FM051400 02015KT P6SM SCT008 OVC015
     FM051800 02012KT P6SM BKN035=



000
FTUS41 KCLE 041901 AAB
TAFCLE
TAF AMD
KCLE 041901Z 0419/0524 VRB04KT P6SM VCSH OVC050
     FM041915 22010G22KT 4SM -TSRA BR OVC050CB
     FM042000 22010KT 6SM -SHRA OVC035
      TEMPO 0420/0422 01015KT 3SM TSRA OVC025CB
     FM042200 02007KT 5SM -SHRA BR OVC025
     FM050200 02007KT P6SM OVC015
      TEMPO 0511/0514 BKN008 OVC015
     FM051400 02015KT P6SM SCT008 OVC015
     FM051800 02012KT P6SM BKN035=



000
FTUS41 KCLE 041901 AAB
TAFCLE
TAF AMD
KCLE 041901Z 0419/0524 VRB04KT P6SM VCSH OVC050
     FM041915 22010G22KT 4SM -TSRA BR OVC050CB
     FM042000 22010KT 6SM -SHRA OVC035
      TEMPO 0420/0422 01015KT 3SM TSRA OVC025CB
     FM042200 02007KT 5SM -SHRA BR OVC025
     FM050200 02007KT P6SM OVC015
      TEMPO 0511/0514 BKN008 OVC015
     FM051400 02015KT P6SM SCT008 OVC015
     FM051800 02012KT P6SM BKN035=



000
FTUS41 KCLE 041836 AAA
TAFCLE
TAF AMD
KCLE 041836Z 0419/0524 VRB04KT P6SM VCSH OVC050
     FM042000 22010KT 6SM -SHRA OVC035
      TEMPO 0420/0422 01015KT 3SM TSRA OVC025CB
     FM042200 02007KT 5SM -SHRA BR OVC025
     FM050200 02007KT P6SM OVC015
      TEMPO 0511/0514 BKN008 OVC015
     FM051400 02015KT P6SM SCT008 OVC015
     FM051800 02012KT P6SM BKN035=



000
FTUS41 KCLE 041836 AAA
TAFCLE
TAF AMD
KCLE 041836Z 0419/0524 VRB04KT P6SM VCSH OVC050
     FM042000 22010KT 6SM -SHRA OVC035
      TEMPO 0420/0422 01015KT 3SM TSRA OVC025CB
     FM042200 02007KT 5SM -SHRA BR OVC025
     FM050200 02007KT P6SM OVC015
      TEMPO 0511/0514 BKN008 OVC015
     FM051400 02015KT P6SM SCT008 OVC015
     FM051800 02012KT P6SM BKN035=



000
FTUS41 KCLE 041736
TAFCLE
TAF
KCLE 041736Z 0418/0524 18010KT P6SM VCTS OVC050CB
      TEMPO 0418/0419 5SM -TSRA BR OVC050CB
     FM042000 22005KT 6SM -SHRA OVC035
      TEMPO 0420/0422 01015KT 3SM TSRA OVC025CB
     FM042200 02007KT 5SM -SHRA BR OVC025
     FM050200 02007KT P6SM OVC015
      TEMPO 0511/0514 BKN008 OVC015
     FM051400 02015KT P6SM SCT008 OVC015
     FM051800 02012KT P6SM BKN035=



000
FTUS41 KCLE 041736
TAFFDY
TAF
KFDY 041736Z 0418/0518 21013KT 6SM -SHRA BKN035 OVC050
     FM042000 23012KT 5SM -SHRA OVC025
     FM042200 28010KT 5SM -SHRA BR OVC015
     FM050000 33010KT 5SM BR SCT008 OVC012
      TEMPO 0503/0506 BKN008 OVC012
     FM050600 35010KT P6SM BKN008 OVC012
     FM051000 01012KT P6SM SCT008 BKN012
      TEMPO 0513/0516 SCT012 BKN030
     FM051600 02012KT P6SM BKN035=



000
FTUS41 KCLE 041736
TAFERI
TAF
KERI 041736Z 0418/0518 04010KT P6SM BKN050 BKN100
     FM050200 06010KT P6SM SCT025 BKN150
     FM051000 04012KT P6SM VCSH SCT007 OVC015=



000
FTUS41 KCLE 041736
TAFTOL
TAF
KTOL 041736Z 0418/0518 20010KT 6SM -SHRA BKN025 OVC035
     FM042000 30008KT 5SM -SHRA BR OVC012
     FM042200 34010KT 5SM BR SCT008 OVC012
     FM050300 36006KT 5SM BR OVC008
     FM051000 02012KT P6SM SCT008 BKN035
      TEMPO 0515/0518 BKN030=



000
FTUS41 KCLE 041736
TAFCAK
TAF
KCAK 041736Z 0418/0518 18007KT P6SM VCSH BKN050 BKN100
     FM042000 22010KT P6SM -SHRA OVC050
      TEMPO 0420/0422 3SM -TSRA OVC025CB
     FM042200 26007KT 3SM -SHRA BR OVC025
     FM050200 35007KT 3SM BR OVC015
      TEMPO 0509/0512 BKN008 OVC015
     FM051600 02010KT P6SM BKN030=



000
FTUS41 KCLE 041736
TAFMFD
TAF
KMFD 041736Z 0418/0518 18010KT P6SM -SHRA BKN035 OVC050
      TEMPO 0419/0421 3SM -TSRA OVC025CB
     FM042200 29007KT 3SM -SHRA BR OVC015
     FM050100 36007KT 3SM BR OVC015
     FM050600 01008KT 6SM BR BKN008 OVC012
     FM051200 01010KT P6SM SCT012 BKN020
     FM051600 02012KT P6SM BKN035=



000
FTUS41 KCLE 041736
TAFYNG
TAF
KYNG 041736Z 0418/0518 17008KT P6SM VCSH BKN050 BKN100
     FM042100 20008KT P6SM -SHRA OVC050
      TEMPO 0421/0423 3SM -TSRA OVC025CB
     FM042300 32007KT 6SM BR VCSH SCT025 OVC035
     FM050300 03007KT 5SM BR OVC020
      TEMPO 0506/0510 BKN015 OVC020
     FM051000 05010KT P6SM SCT008 OVC010=



000
FTUS41 KCLE 041736
TAFCLE
TAF
KCLE 041736Z 0418/0524 18010KT P6SM VCTS OVC050CB
      TEMPO 0418/0419 5SM -TSRA BR OVC050CB
     FM042000 22005KT 6SM -SHRA OVC035
      TEMPO 0420/0422 01015KT 3SM TSRA OVC025CB
     FM042200 02007KT 5SM -SHRA BR OVC025
     FM050200 02007KT P6SM OVC015
      TEMPO 0511/0514 BKN008 OVC015
     FM051400 02015KT P6SM SCT008 OVC015
     FM051800 02012KT P6SM BKN035=



000
FTUS41 KCLE 041736
TAFMFD
TAF
KMFD 041736Z 0418/0518 18010KT P6SM -SHRA BKN035 OVC050
      TEMPO 0419/0421 3SM -TSRA OVC025CB
     FM042200 29007KT 3SM -SHRA BR OVC015
     FM050100 36007KT 3SM BR OVC015
     FM050600 01008KT 6SM BR BKN008 OVC012
     FM051200 01010KT P6SM SCT012 BKN020
     FM051600 02012KT P6SM BKN035=



000
FTUS41 KCLE 041736
TAFYNG
TAF
KYNG 041736Z 0418/0518 17008KT P6SM VCSH BKN050 BKN100
     FM042100 20008KT P6SM -SHRA OVC050
      TEMPO 0421/0423 3SM -TSRA OVC025CB
     FM042300 32007KT 6SM BR VCSH SCT025 OVC035
     FM050300 03007KT 5SM BR OVC020
      TEMPO 0506/0510 BKN015 OVC020
     FM051000 05010KT P6SM SCT008 OVC010=



000
FTUS41 KCLE 041736
TAFFDY
TAF
KFDY 041736Z 0418/0518 21013KT 6SM -SHRA BKN035 OVC050
     FM042000 23012KT 5SM -SHRA OVC025
     FM042200 28010KT 5SM -SHRA BR OVC015
     FM050000 33010KT 5SM BR SCT008 OVC012
      TEMPO 0503/0506 BKN008 OVC012
     FM050600 35010KT P6SM BKN008 OVC012
     FM051000 01012KT P6SM SCT008 BKN012
      TEMPO 0513/0516 SCT012 BKN030
     FM051600 02012KT P6SM BKN035=



000
FTUS41 KCLE 041736
TAFERI
TAF
KERI 041736Z 0418/0518 04010KT P6SM BKN050 BKN100
     FM050200 06010KT P6SM SCT025 BKN150
     FM051000 04012KT P6SM VCSH SCT007 OVC015=



000
FTUS41 KCLE 041736
TAFTOL
TAF
KTOL 041736Z 0418/0518 20010KT 6SM -SHRA BKN025 OVC035
     FM042000 30008KT 5SM -SHRA BR OVC012
     FM042200 34010KT 5SM BR SCT008 OVC012
     FM050300 36006KT 5SM BR OVC008
     FM051000 02012KT P6SM SCT008 BKN035
      TEMPO 0515/0518 BKN030=



000
FTUS41 KCLE 041736
TAFCAK
TAF
KCAK 041736Z 0418/0518 18007KT P6SM VCSH BKN050 BKN100
     FM042000 22010KT P6SM -SHRA OVC050
      TEMPO 0420/0422 3SM -TSRA OVC025CB
     FM042200 26007KT 3SM -SHRA BR OVC025
     FM050200 35007KT 3SM BR OVC015
      TEMPO 0509/0512 BKN008 OVC015
     FM051600 02010KT P6SM BKN030=



000
FTUS41 KCLE 041644 AAB
TAFCLE
TAF AMD
KCLE 041644Z 0417/0518 18010KT P6SM VCTS OVC050CB
     FM042000 22005KT 5SM -SHRA OVC035
      TEMPO 0420/0422 01015KT 3SM TSRA OVC025CB
     FM042200 04007KT 5SM -SHRA BR OVC025
     FM050200 04007KT P6SM OVC015=



000
FTUS41 KCLE 041644 AAB
TAFCLE
TAF AMD
KCLE 041644Z 0417/0518 18010KT P6SM VCTS OVC050CB
     FM042000 22005KT 5SM -SHRA OVC035
      TEMPO 0420/0422 01015KT 3SM TSRA OVC025CB
     FM042200 04007KT 5SM -SHRA BR OVC025
     FM050200 04007KT P6SM OVC015=



000
FTUS41 KCLE 041515 AAA
TAFYNG
TAF AMD
KYNG 041515Z 0415/0512 19004KT P6SM SCT100
     FM041600 17008KT P6SM VCSH SCT070 BKN100
     FM042100 20008KT P6SM -SHRA OVC050
      TEMPO 0421/0423 3SM -TSRA OVC025CB
     FM042300 32007KT 5SM -SHRA BR OVC025
     FM050300 03007KT 5SM BR OVC015=



000
FTUS41 KCLE 041451 AAB
TAFCLE
TAF AMD
KCLE 041451Z 0415/0518 18010KT P6SM SCT060 BKN100
     FM041700 18010KT P6SM VCSH OVC050
     FM042000 22005KT 5SM -SHRA OVC035
      TEMPO 0420/0422 01015KT 3SM TSRA OVC025CB
     FM042200 04007KT 5SM -SHRA BR OVC025
     FM050200 04007KT P6SM OVC015=



000
FTUS41 KCLE 041402 AAA
TAFFDY
TAF AMD
KFDY 041402Z 0414/0512 19008KT P6SM BKN080
     FM041700 21012KT 6SM -SHRA OVC050
     FM041900 23012KT 4SM -SHRA OVC025
     FM042000 28008KT 5SM -SHRA BR OVC015
     FM042300 35010KT 5SM BR SCT008 OVC012=



000
FTUS41 KCLE 041402 AAA
TAFFDY
TAF AMD
KFDY 041402Z 0414/0512 19008KT P6SM BKN080
     FM041700 21012KT 6SM -SHRA OVC050
     FM041900 23012KT 4SM -SHRA OVC025
     FM042000 28008KT 5SM -SHRA BR OVC015
     FM042300 35010KT 5SM BR SCT008 OVC012=



000
FTUS41 KCLE 041401 AAA
TAFTOL
TAF AMD
KTOL 041401Z 0414/0512 18006KT P6SM BKN050 OVC100
     FM041700 22010KT 3SM -SHRA OVC025
     FM041900 30008KT 5SM -SHRA BR OVC012
     FM042200 34010KT 5SM BR SCT008 OVC012
     FM050300 34006KT 5SM BR OVC008
     FM051000 01008KT P6SM SCT008=



000
FTUS41 KCLE 041401 AAA
TAFTOL
TAF AMD
KTOL 041401Z 0414/0512 18006KT P6SM BKN050 OVC100
     FM041700 22010KT 3SM -SHRA OVC025
     FM041900 30008KT 5SM -SHRA BR OVC012
     FM042200 34010KT 5SM BR SCT008 OVC012
     FM050300 34006KT 5SM BR OVC008
     FM051000 01008KT P6SM SCT008=



000
FTUS41 KCLE 041137
TAFMFD
TAF
KMFD 041137Z 0412/0512 20007KT P6SM VCSH SCT050 BKN100
     FM041700 20010KT P6SM -SHRA OVC050
     FM041900 20010KT 5SM -SHRA OVC035
      TEMPO 0419/0421 3SM -TSRA OVC025CB
     FM042200 29007KT 3SM -SHRA BR OVC015
     FM050100 36007KT 3SM BR OVC015=



000
FTUS41 KCLE 041137
TAFCAK
TAF
KCAK 041137Z 0412/0512 20007KT P6SM BKN100
     FM042000 22010KT P6SM -SHRA OVC050
      TEMPO 0420/0422 3SM -TSRA OVC025CB
     FM042200 33007KT 3SM -SHRA BR OVC025
     FM050200 35007KT 3SM BR OVC015=



000
FTUS41 KCLE 041137
TAFCLE
TAF
KCLE 041137Z 0412/0518 18007KT P6SM VCSH SCT050 BKN100
     FM041800 20010KT P6SM -SHRA OVC050
     FM042000 22010KT 5SM -SHRA OVC035
      TEMPO 0420/0422 01015KT 3SM TSRA OVC025CB
     FM042200 04007KT 5SM -SHRA BR OVC025
     FM050200 04007KT P6SM OVC015=



000
FTUS41 KCLE 041137
TAFYNG
TAF
KYNG 041137Z 0412/0512 14004KT P6SM SCT100
     FM041600 17008KT P6SM BKN100
     FM042100 20008KT P6SM -SHRA OVC050
      TEMPO 0421/0423 3SM -TSRA OVC025CB
     FM042300 32007KT 5SM -SHRA BR OVC025
     FM050300 03007KT 5SM BR OVC015=



000
FTUS41 KCLE 041137
TAFERI
TAF
KERI 041137Z 0412/0512 18006KT P6SM SCT100
     FM041400 20008KT P6SM BKN100
     FM041900 02008KT P6SM SCT050 OVC100
      TEMPO 0422/0502 5SM -SHRA OVC050
     FM050200 04006KT P6SM SCT025 BKN150=



000
FTUS41 KCLE 041137
TAFFDY
TAF
KFDY 041137Z 0412/0512 19008KT P6SM BKN080
     FM041600 21012KT 6SM -SHRA OVC050
     FM041800 23012KT 4SM -SHRA OVC025
     FM042000 28008KT 5SM -SHRA BR OVC015
     FM042300 35010KT 5SM BR SCT008 OVC012=



000
FTUS41 KCLE 041137
TAFTOL
TAF
KTOL 041137Z 0412/0512 18006KT P6SM BKN050
     FM041500 20010KT 5SM -SHRA OVC050
     FM041700 22010KT 3SM -SHRA OVC025
     FM041900 30008KT 5SM -SHRA BR OVC012
     FM042200 34010KT 5SM BR SCT008 OVC012
     FM050300 34006KT 5SM BR OVC008
     FM051000 01008KT P6SM SCT008=



000
FTUS41 KCLE 041137
TAFTOL
TAF
KTOL 041137Z 0412/0512 18006KT P6SM BKN050
     FM041500 20010KT 5SM -SHRA OVC050
     FM041700 22010KT 3SM -SHRA OVC025
     FM041900 30008KT 5SM -SHRA BR OVC012
     FM042200 34010KT 5SM BR SCT008 OVC012
     FM050300 34006KT 5SM BR OVC008
     FM051000 01008KT P6SM SCT008=



000
FTUS41 KCLE 041137
TAFMFD
TAF
KMFD 041137Z 0412/0512 20007KT P6SM VCSH SCT050 BKN100
     FM041700 20010KT P6SM -SHRA OVC050
     FM041900 20010KT 5SM -SHRA OVC035
      TEMPO 0419/0421 3SM -TSRA OVC025CB
     FM042200 29007KT 3SM -SHRA BR OVC015
     FM050100 36007KT 3SM BR OVC015=



000
FTUS41 KCLE 041137
TAFERI
TAF
KERI 041137Z 0412/0512 18006KT P6SM SCT100
     FM041400 20008KT P6SM BKN100
     FM041900 02008KT P6SM SCT050 OVC100
      TEMPO 0422/0502 5SM -SHRA OVC050
     FM050200 04006KT P6SM SCT025 BKN150=



000
FTUS41 KCLE 041137
TAFFDY
TAF
KFDY 041137Z 0412/0512 19008KT P6SM BKN080
     FM041600 21012KT 6SM -SHRA OVC050
     FM041800 23012KT 4SM -SHRA OVC025
     FM042000 28008KT 5SM -SHRA BR OVC015
     FM042300 35010KT 5SM BR SCT008 OVC012=



000
FTUS41 KCLE 041137
TAFCLE
TAF
KCLE 041137Z 0412/0518 18007KT P6SM VCSH SCT050 BKN100
     FM041800 20010KT P6SM -SHRA OVC050
     FM042000 22010KT 5SM -SHRA OVC035
      TEMPO 0420/0422 01015KT 3SM TSRA OVC025CB
     FM042200 04007KT 5SM -SHRA BR OVC025
     FM050200 04007KT P6SM OVC015=



000
FTUS41 KCLE 041137
TAFYNG
TAF
KYNG 041137Z 0412/0512 14004KT P6SM SCT100
     FM041600 17008KT P6SM BKN100
     FM042100 20008KT P6SM -SHRA OVC050
      TEMPO 0421/0423 3SM -TSRA OVC025CB
     FM042300 32007KT 5SM -SHRA BR OVC025
     FM050300 03007KT 5SM BR OVC015=



000
FTUS41 KCLE 041137
TAFCAK
TAF
KCAK 041137Z 0412/0512 20007KT P6SM BKN100
     FM042000 22010KT P6SM -SHRA OVC050
      TEMPO 0420/0422 3SM -TSRA OVC025CB
     FM042200 33007KT 3SM -SHRA BR OVC025
     FM050200 35007KT 3SM BR OVC015=



000
FTUS41 KCLE 040906 AAA
TAFCLE
TAF AMD
KCLE 040906Z 0409/0512 18005KT P6SM SCT100
     FM041200 20007KT P6SM BKN100
     FM041800 20010KT P6SM -SHRA OVC050
     FM042000 22010KT 5SM -SHRA OVC035
      TEMPO 0420/0422 36015KT 3SM TSRA OVC025CB
     FM042200 02007KT 5SM -SHRA BR OVC025=



000
FTUS41 KCLE 040541
TAFTOL
TAF
KTOL 040541Z 0406/0506 20006KT P6SM BKN080
     FM041500 22010KT 6SM -SHRA OVC050
     FM041700 24010KT 5SM -SHRA OVC025
     FM041900 28008KT 3SM -SHRA BR OVC012
     FM042200 34010KT 5SM BR SCT008 OVC012
     FM050300 34006KT P6SM OVC008=



000
FTUS41 KCLE 040541
TAFYNG
TAF
KYNG 040541Z 0406/0506 18004KT P6SM SCT100
     FM041600 20008KT P6SM BKN100
     FM042100 22010KT P6SM -SHRA OVC050
      TEMPO 0421/0423 26015G25KT 3SM TSRA OVC025CB
     FM042300 28007KT 5SM -SHRA BR OVC025=



000
FTUS41 KCLE 040541
TAFCAK
TAF
KCAK 040541Z 0406/0506 20004KT P6SM SCT100
     FM041400 20008KT P6SM BKN100
     FM042000 22010KT P6SM -SHRA OVC050
      TEMPO 0420/0422 26015G25KT 3SM TSRA OVC025CB
     FM042200 28007KT 3SM -SHRA BR OVC025=



000
FTUS41 KCLE 040541
TAFMFD
TAF
KMFD 040541Z 0406/0506 20005KT P6SM SCT100
     FM041200 20007KT P6SM BKN100
     FM041700 20010KT P6SM -SHRA OVC050
     FM041900 22010KT 5SM -SHRA OVC035
      TEMPO 0419/0421 26015G25KT 3SM TSRA OVC025CB
     FM042200 25007KT 3SM -SHRA BR OVC015=



000
FTUS41 KCLE 040541
TAFCLE
TAF
KCLE 040541Z 0406/0512 18005KT P6SM SCT100
     FM041200 20007KT P6SM BKN100
     FM041800 20010KT P6SM -SHRA OVC050
     FM042000 22010KT 5SM -SHRA OVC035
      TEMPO 0420/0422 36015KT 3SM TSRA OVC025CB
     FM042200 02007KT 5SM -SHRA BR OVC025=



000
FTUS41 KCLE 040541
TAFFDY
TAF
KFDY 040541Z 0406/0506 19008KT P6SM BKN080
     FM041600 21012KT 6SM -SHRA OVC050
     FM041800 23012KT 5SM -SHRA OVC025
     FM042000 28008KT 3SM -SHRA BR OVC015
     FM042300 33010KT 5SM BR SCT008 OVC012=



000
FTUS41 KCLE 040541
TAFERI
TAF
KERI 040541Z 0406/0506 18006KT P6SM SCT100
     FM041400 20008KT P6SM BKN100
     FM041900 02008KT P6SM SCT050 OVC100
      TEMPO 0421/0501 5SM -SHRA OVC050=



000
FTUS41 KCLE 040256 AAA
TAFCLE
TAF AMD
KCLE 040256Z 0403/0506 18004KT P6SM SCT080
     FM040900 19006KT P6SM SCT040 OVC080
     FM041700 20012KT P6SM -SHRA OVC035=



000
FTUS41 KCLE 032335
TAFFDY
TAF
KFDY 032335Z 0400/0424 24006KT P6SM BKN080
     FM040500 21006KT P6SM SCT040 OVC080
     FM041600 21010KT P6SM -SHRA OVC025
     FM042100 26012KT 3SM -SHRA BR SCT008 OVC012=



000
FTUS41 KCLE 032335
TAFCAK
TAF
KCAK 032335Z 0400/0424 32007KT P6SM SCT040 BKN080
     FM041000 20010KT P6SM BKN040 OVC080
     FM041800 20012KT P6SM -SHRA OVC035=



000
FTUS41 KCLE 032335
TAFERI
TAF
KERI 032335Z 0400/0424 28006KT P6SM SCT080
     FM041200 20010KT P6SM SCT040 OVC080=



000
FTUS41 KCLE 032335
TAFTOL
TAF
KTOL 032335Z 0400/0424 23008KT P6SM BKN080
     FM040400 21006KT P6SM SCT040 OVC080
     FM041500 21010KT 5SM -SHRA OVC025
     FM042000 26012KT 3SM -SHRA BR SCT008 OVC012=



000
FTUS41 KCLE 032335
TAFMFD
TAF
KMFD 032335Z 0400/0424 30006KT P6SM OVC060
     FM040400 22006KT P6SM SCT060
     FM040800 21006KT P6SM SCT040 OVC080
     FM041600 20010KT P6SM -SHRA OVC035
     FM042000 20010KT 5SM -SHRA OVC025=



000
FTUS41 KCLE 032335
TAFYNG
TAF
KYNG 032335Z 0400/0424 33007KT P6SM SCT040 BKN100
     FM041100 20010KT P6SM BKN040 OVC080
     FM041900 20012KT P6SM -SHRA OVC035=



000
FTUS41 KCLE 032335
TAFCLE
TAF
KCLE 032335Z 0400/0506 33005KT P6SM BKN080
     FM040300 20006KT P6SM SCT080
     FM040900 20006KT P6SM SCT040 OVC080
     FM041700 20012KT P6SM -SHRA OVC035=



000
FTUS41 KCLE 032101 AAA
TAFCLE
TAF AMD
KCLE 032101Z 0321/0424 35006KT P6SM SCT080
     FM032300 32004KT P6SM BKN080
     FM040600 19010KT P6SM BKN250
     FM041800 19012KT P6SM -SHRA OVC035=



000
FTUS41 KCLE 031731 CCA
TAFERI
TAF COR
KERI 031731Z 0318/0418 33006KT P6SM SCT018 OVC050
      TEMPO 0318/0320 BKN018
     FM040000 28006KT P6SM BKN100
     FM040600 18010KT P6SM SCT100=



000
FTUS41 KCLE 031731 CCA
TAFERI
TAF COR
KERI 031731Z 0318/0418 33006KT P6SM SCT018 OVC050
      TEMPO 0318/0320 BKN018
     FM040000 28006KT P6SM BKN100
     FM040600 18010KT P6SM SCT100=



000
FTUS41 KCLE 031730
TAFMFD
TAF
KMFD 031730Z 0318/0418 34006KT P6SM SCT025 OVC070
      TEMPO 0318/0320 BKN025
     FM032200 28006KT P6SM BKN100
     FM040300 21008KT P6SM BKN250
     FM041600 20010KT P6SM -SHRA OVC035=



000
FTUS41 KCLE 031730
TAFYNG
TAF
KYNG 031730Z 0318/0418 33006KT P6SM SCT025 BKN060
      TEMPO 0318/0319 BKN025
     FM040100 VRB03KT P6SM BKN100
     FM041200 20010KT P6SM OVC100=



000
FTUS41 KCLE 031730
TAFERI
TAF
KERI 031730Z 0318/0418 33006KT P6SM SCT025 OVC050
      TEMPO 0318/0320 BKN025
     FM040000 28006KT P6SM BKN100
     FM040600 18010KT P6SM SCT100=



000
FTUS41 KCLE 031730
TAFCLE
TAF
KCLE 031730Z 0318/0424 32006KT P6SM FEW020 BKN070
     FM032300 24004KT P6SM BKN100
     FM040600 19010KT P6SM BKN250
     FM041800 19012KT P6SM -SHRA OVC035=



000
FTUS41 KCLE 031730
TAFCAK
TAF
KCAK 031730Z 0318/0418 33006KT P6SM BKN060
     FM040000 VRB03KT P6SM BKN100
     FM041200 20010KT P6SM OVC100=



000
FTUS41 KCLE 031730
TAFCAK
TAF
KCAK 031730Z 0318/0418 33006KT P6SM BKN060
     FM040000 VRB03KT P6SM BKN100
     FM041200 20010KT P6SM OVC100=



000
FTUS41 KCLE 031730
TAFCLE
TAF
KCLE 031730Z 0318/0424 32006KT P6SM FEW020 BKN070
     FM032300 24004KT P6SM BKN100
     FM040600 19010KT P6SM BKN250
     FM041800 19012KT P6SM -SHRA OVC035=



000
FTUS41 KCLE 031730
TAFERI
TAF
KERI 031730Z 0318/0418 33006KT P6SM SCT025 OVC050
      TEMPO 0318/0320 BKN025
     FM040000 28006KT P6SM BKN100
     FM040600 18010KT P6SM SCT100=



000
FTUS41 KCLE 031730
TAFTOL
TAF
KTOL 031730Z 0318/0418 31006KT P6SM BKN080
     FM032100 26004KT P6SM BKN100
     FM040200 21010KT P6SM BKN250
     FM041400 21010KT P6SM -SHRA OVC035=



000
FTUS41 KCLE 031730
TAFFDY
TAF
KFDY 031730Z 0318/0418 32006KT P6SM OVC060
     FM032100 26005KT P6SM BKN100
     FM040200 21010KT P6SM BKN250
     FM041400 21010KT P6SM -SHRA OVC035=



000
FTUS41 KCLE 031730
TAFFDY
TAF
KFDY 031730Z 0318/0418 32006KT P6SM OVC060
     FM032100 26005KT P6SM BKN100
     FM040200 21010KT P6SM BKN250
     FM041400 21010KT P6SM -SHRA OVC035=



000
FTUS41 KCLE 031730
TAFYNG
TAF
KYNG 031730Z 0318/0418 33006KT P6SM SCT025 BKN060
      TEMPO 0318/0319 BKN025
     FM040100 VRB03KT P6SM BKN100
     FM041200 20010KT P6SM OVC100=



000
FTUS41 KCLE 031730
TAFMFD
TAF
KMFD 031730Z 0318/0418 34006KT P6SM SCT025 OVC070
      TEMPO 0318/0320 BKN025
     FM032200 28006KT P6SM BKN100
     FM040300 21008KT P6SM BKN250
     FM041600 20010KT P6SM -SHRA OVC035=



000
FTUS41 KCLE 031730
TAFTOL
TAF
KTOL 031730Z 0318/0418 31006KT P6SM BKN080
     FM032100 26004KT P6SM BKN100
     FM040200 21010KT P6SM BKN250
     FM041400 21010KT P6SM -SHRA OVC035=



000
FTUS41 KCLE 031503 AAB
TAFERI
TAF AMD
KERI 031503Z 0315/0412 00000KT P6SM SCT006 OVC010
     FM031800 01005KT P6SM BKN060
     FM040400 VRB03KT P6SM SCT250
     FM041000 VRB03KT P6SM BKN100=



000
FTUS41 KCLE 031453 AAC
TAFCLE
TAF AMD
KCLE 031453Z 0315/0418 35006KT P6SM FEW020 BKN060
     FM040000 VRB04KT P6SM BKN250
     FM040800 22008KT P6SM OVC100
     FM041100 20008KT P6SM -SHRA OVC035
     FM041500 VRB03KT P6SM -SHRA OVC025=



000
FTUS41 KCLE 031305 AAB
TAFYNG
TAF AMD
KYNG 031305Z 0313/0412 03005KT 6SM BR SCT004 OVC010
      TEMPO 0313/0315 BKN004
     FM031500 01006KT P6SM BKN060
     FM040400 VRB03KT P6SM SCT250
     FM041000 VRB03KT P6SM BKN100=



000
FTUS41 KCLE 031303 AAB
TAFCLE
TAF AMD
KCLE 031303Z 0313/0418 35006KT P6SM BKN060
      TEMPO 0313/0315 BKN012
     FM040000 VRB04KT P6SM BKN250
     FM040800 22008KT P6SM OVC100
     FM041100 20008KT P6SM -SHRA OVC035
     FM041500 VRB03KT P6SM -SHRA OVC025=



000
FTUS41 KCLE 031303 AAB
TAFCLE
TAF AMD
KCLE 031303Z 0313/0418 35006KT P6SM BKN060
      TEMPO 0313/0315 BKN012
     FM040000 VRB04KT P6SM BKN250
     FM040800 22008KT P6SM OVC100
     FM041100 20008KT P6SM -SHRA OVC035
     FM041500 VRB03KT P6SM -SHRA OVC025=



000
FTUS41 KCLE 031302 AAA
TAFERI
TAF AMD
KERI 031302Z 0313/0412 00000KT 6SM BR SCT005 OVC010
      TEMPO 0313/0316 4SM BR OVC005
     FM031600 01005KT P6SM BKN060
     FM040400 VRB03KT P6SM SCT250
     FM041000 VRB03KT P6SM BKN100=



000
FTUS41 KCLE 031301 AAA
TAFYNG
TAF AMD
KYNG 031301Z 0313/0412 03005KT 6SM BR SCT004 OVC010
      TEMPO 0313/0314 BKN004
     FM031500 01006KT P6SM BKN060
     FM040400 VRB03KT P6SM SCT250
     FM041000 VRB03KT P6SM BKN100=



000
FTUS41 KCLE 031301 AAA
TAFYNG
TAF AMD
KYNG 031301Z 0313/0412 03005KT 6SM BR SCT004 OVC010
      TEMPO 0313/0314 BKN004
     FM031500 01006KT P6SM BKN060
     FM040400 VRB03KT P6SM SCT250
     FM041000 VRB03KT P6SM BKN100=



000
FTUS41 KCLE 031130
TAFFDY
TAF
KFDY 031130Z 0312/0412 VRB03KT P6SM OVC060
     FM031600 32005KT P6SM OVC060
     FM032200 28005KT P6SM OVC060
     FM040000 21004KT P6SM BKN250
     FM040600 22008KT P6SM OVC100
     FM040900 20010KT P6SM -SHRA OVC035=



000
FTUS41 KCLE 031130
TAFYNG
TAF
KYNG 031130Z 0312/0412 03005KT 2SM BR OVC012
     FM031300 01006KT P6SM BKN060
     FM040400 VRB03KT P6SM SCT250
     FM041000 VRB03KT P6SM BKN100=



000
FTUS41 KCLE 031130
TAFTOL
TAF
KTOL 031130Z 0312/0412 00000KT 3SM BR OVC060
      TEMPO 0312/0313 2SM BR
     FM031300 35004KT P6SM OVC060
     FM031800 34006KT P6SM BKN100
     FM032300 23004KT P6SM BKN250
     FM040600 22008KT P6SM OVC100
     FM040900 21007KT P6SM -SHRA OVC035=



000
FTUS41 KCLE 031130
TAFCLE
TAF
KCLE 031130Z 0312/0418 35006KT P6SM BKN060
     FM040000 VRB04KT P6SM BKN250
     FM040800 22008KT P6SM OVC100
     FM041100 20008KT P6SM -SHRA OVC035
     FM041500 VRB03KT P6SM -SHRA OVC025=



000
FTUS41 KCLE 031130
TAFERI
TAF
KERI 031130Z 0312/0412 00000KT P6SM OVC012
     FM031300 01005KT P6SM BKN060
     FM040400 VRB03KT P6SM SCT250
     FM041000 VRB03KT P6SM BKN100=



000
FTUS41 KCLE 031130
TAFCAK
TAF
KCAK 031130Z 0312/0412 03006KT 6SM BR BKN060
     FM031300 33006KT P6SM BKN060
     FM040000 VRB03KT P6SM BKN100
     FM040300 VRB03KT P6SM BKN250
     FM040800 20008KT P6SM OVC100
     FM041100 20008KT P6SM -SHRA OVC035=



000
FTUS41 KCLE 031130
TAFMFD
TAF
KMFD 031130Z 0312/0412 VRB03KT 4SM BR OVC060
     FM031300 34005KT P6SM BKN060
     FM040000 VRB03KT P6SM BKN250
     FM040800 22008KT P6SM OVC100
     FM041100 20008KT P6SM -SHRA OVC035=



000
FTUS41 KCLE 031130
TAFFDY
TAF
KFDY 031130Z 0312/0412 VRB03KT P6SM OVC060
     FM031600 32005KT P6SM OVC060
     FM032200 28005KT P6SM OVC060
     FM040000 21004KT P6SM BKN250
     FM040600 22008KT P6SM OVC100
     FM040900 20010KT P6SM -SHRA OVC035=



000
FTUS41 KCLE 031130
TAFMFD
TAF
KMFD 031130Z 0312/0412 VRB03KT 4SM BR OVC060
     FM031300 34005KT P6SM BKN060
     FM040000 VRB03KT P6SM BKN250
     FM040800 22008KT P6SM OVC100
     FM041100 20008KT P6SM -SHRA OVC035=



000
FTUS41 KCLE 031130
TAFYNG
TAF
KYNG 031130Z 0312/0412 03005KT 2SM BR OVC012
     FM031300 01006KT P6SM BKN060
     FM040400 VRB03KT P6SM SCT250
     FM041000 VRB03KT P6SM BKN100=



000
FTUS41 KCLE 031130
TAFTOL
TAF
KTOL 031130Z 0312/0412 00000KT 3SM BR OVC060
      TEMPO 0312/0313 2SM BR
     FM031300 35004KT P6SM OVC060
     FM031800 34006KT P6SM BKN100
     FM032300 23004KT P6SM BKN250
     FM040600 22008KT P6SM OVC100
     FM040900 21007KT P6SM -SHRA OVC035=



000
FTUS41 KCLE 031130
TAFERI
TAF
KERI 031130Z 0312/0412 00000KT P6SM OVC012
     FM031300 01005KT P6SM BKN060
     FM040400 VRB03KT P6SM SCT250
     FM041000 VRB03KT P6SM BKN100=



000
FTUS41 KCLE 031130
TAFCLE
TAF
KCLE 031130Z 0312/0418 35006KT P6SM BKN060
     FM040000 VRB04KT P6SM BKN250
     FM040800 22008KT P6SM OVC100
     FM041100 20008KT P6SM -SHRA OVC035
     FM041500 VRB03KT P6SM -SHRA OVC025=



000
FTUS41 KCLE 031130
TAFCAK
TAF
KCAK 031130Z 0312/0412 03006KT 6SM BR BKN060
     FM031300 33006KT P6SM BKN060
     FM040000 VRB03KT P6SM BKN100
     FM040300 VRB03KT P6SM BKN250
     FM040800 20008KT P6SM OVC100
     FM041100 20008KT P6SM -SHRA OVC035=



000
FTUS41 KCLE 030912 AAA
TAFTOL
TAF AMD
KTOL 030912Z 0309/0406 00000KT 3SM BR OVC060
      TEMPO 0309/0312 1SM BR
     FM031300 35004KT P6SM OVC060
     FM031800 34006KT P6SM BKN060
     FM032300 23004KT P6SM BKN250=



000
FTUS41 KCLE 030912 AAA
TAFTOL
TAF AMD
KTOL 030912Z 0309/0406 00000KT 3SM BR OVC060
      TEMPO 0309/0312 1SM BR
     FM031300 35004KT P6SM OVC060
     FM031800 34006KT P6SM BKN060
     FM032300 23004KT P6SM BKN250=



000
FTUS41 KCLE 030911 AAA
TAFMFD
TAF AMD
KMFD 030911Z 0309/0406 VRB03KT P6SM OVC060
     FM031400 34005KT P6SM OVC060
     FM031800 32006KT P6SM BKN040
     FM040000 VRB03KT P6SM BKN250=



000
FTUS41 KCLE 030911 AAA
TAFMFD
TAF AMD
KMFD 030911Z 0309/0406 VRB03KT P6SM OVC060
     FM031400 34005KT P6SM OVC060
     FM031800 32006KT P6SM BKN040
     FM040000 VRB03KT P6SM BKN250=



000
FTUS41 KCLE 030910 AAA
TAFFDY
TAF AMD
KFDY 030910Z 0309/0406 VRB03KT P6SM OVC060
     FM031600 32005KT P6SM OVC060
     FM032200 28005KT P6SM OVC060
     FM040000 21004KT P6SM BKN250=



000
FTUS41 KCLE 030907 AAA
TAFERI
TAF AMD
KERI 030907Z 0309/0406 VRB03KT 5SM BR OVC012
     FM031300 01005KT P6SM BKN060
     FM040400 VRB03KT P6SM SCT250=



000
FTUS41 KCLE 030907 AAA
TAFERI
TAF AMD
KERI 030907Z 0309/0406 VRB03KT 5SM BR OVC012
     FM031300 01005KT P6SM BKN060
     FM040400 VRB03KT P6SM SCT250=



000
FTUS41 KCLE 030906 AAC
TAFCLE
TAF AMD
KCLE 030906Z 0309/0412 35006KT P6SM BKN060
     FM040000 VRB04KT P6SM BKN250=



000
FTUS41 KCLE 030906 AAC
TAFCLE
TAF AMD
KCLE 030906Z 0309/0412 35006KT P6SM BKN060
     FM040000 VRB04KT P6SM BKN250=



000
FTUS41 KCLE 030826 AAB
TAFYNG
TAF AMD
KYNG 030826Z 0308/0406 02007KT 1SM BR OVC012
      TEMPO 0308/0312 1/4SM FG VV002
     FM031200 02007KT 2SM BR OVC012
     FM031500 33005KT P6SM BKN060
     FM040200 VRB03KT P6SM BKN100
     FM040500 VRB03KT P6SM BKN250=



000
FTUS41 KCLE 030750 AAA
TAFYNG
TAF AMD
KYNG 030750Z 0308/0406 04005KT 3SM BR OVC012
     FM031500 33005KT P6SM BKN060
     FM040200 VRB03KT P6SM BKN100
     FM040500 VRB03KT P6SM BKN250=



000
FTUS41 KCLE 030750 AAA
TAFYNG
TAF AMD
KYNG 030750Z 0308/0406 04005KT 3SM BR OVC012
     FM031500 33005KT P6SM BKN060
     FM040200 VRB03KT P6SM BKN100
     FM040500 VRB03KT P6SM BKN250=



000
FTUS41 KCLE 030521
TAFYNG
TAF
KYNG 030521Z 0306/0406 34005KT P6SM SCT250
     FM030700 36004KT 6SM BR SCT250
     FM030800 36004KT 3SM BR OVC060
     FM030900 35004KT 3SM BR OVC015
     FM031500 33005KT P6SM BKN060
     FM040200 VRB03KT P6SM BKN100
     FM040500 VRB03KT P6SM BKN250=



000
FTUS41 KCLE 030521
TAFCAK
TAF
KCAK 030521Z 0306/0406 35005KT P6SM SCT250
     FM030900 36004KT 6SM BR OVC060
     FM031000 01005KT 6SM BR OVC025
     FM031500 33006KT P6SM BKN060
     FM040000 VRB03KT P6SM BKN100
     FM040300 VRB03KT P6SM BKN250=



000
FTUS41 KCLE 030521
TAFCLE
TAF
KCLE 030521Z 0306/0412 00000KT 3SM BR BKN060
     FM031200 35006KT 6SM BR BKN060
     FM031300 35006KT P6SM BKN060
     FM040000 VRB04KT P6SM BKN250=



000
FTUS41 KCLE 030521
TAFFDY
TAF
KFDY 030521Z 0306/0406 VRB03KT P6SM OVC060
     FM030800 VRB03KT P6SM OVC025
     FM031600 32005KT P6SM OVC060
     FM032200 28005KT P6SM OVC060
     FM040000 21004KT P6SM BKN250=



000
FTUS41 KCLE 030521
TAFERI
TAF
KERI 030521Z 0306/0406 00000KT 4SM BR OVC004
     FM030800 VRB02KT 1 1/2SM BR OVC004
     FM031000 VRB03KT 1 1/2SM BR OVC060
     FM031300 03004KT 4SM BR OVC060
     FM031400 01005KT P6SM BKN060
     FM040400 VRB03KT P6SM SCT250=



000
FTUS41 KCLE 030521
TAFMFD
TAF
KMFD 030521Z 0306/0406 VRB03KT 5SM BR OVC060
     FM031400 34005KT P6SM OVC025
     FM031800 32006KT P6SM BKN040
     FM040000 VRB03KT P6SM BKN250=



000
FTUS41 KCLE 030521
TAFTOL
TAF
KTOL 030521Z 0306/0406 00000KT P6SM OVC060
      TEMPO 0308/0312 4SM BR
     FM031800 34006KT P6SM BKN060
     FM032300 23004KT P6SM BKN250=



000
FTUS41 KCLE 030310 AAB
TAFYNG
TAF AMD
KYNG 030310Z 0303/0324 35006KT P6SM SCT012 BKN120
     FM030800 02003KT 4SM BR BKN012
     FM031500 34004KT P6SM SCT012 BKN040=



000
FTUS41 KCLE 030309 AAA
TAFERI
TAF AMD
KERI 030309Z 0303/0324 05006KT P6SM SCT020 BKN120
     FM030600 03006KT P6SM BKN020
     FM031600 33008KT P6SM OVC040=



000
FTUS41 KCLE 030309 AAA
TAFERI
TAF AMD
KERI 030309Z 0303/0324 05006KT P6SM SCT020 BKN120
     FM030600 03006KT P6SM BKN020
     FM031600 33008KT P6SM OVC040=



000
FTUS41 KCLE 030259 AAA
TAFCAK
TAF AMD
KCAK 030259Z 0303/0324 02003KT P6SM SCT012
     FM030600 02003KT P6SM SCT020 BKN050
      TEMPO 0308/0312 4SM BR BKN025
     FM031500 34006KT P6SM SCT020 BKN050=



000
FTUS41 KCLE 030259 AAA
TAFCAK
TAF AMD
KCAK 030259Z 0303/0324 02003KT P6SM SCT012
     FM030600 02003KT P6SM SCT020 BKN050
      TEMPO 0308/0312 4SM BR BKN025
     FM031500 34006KT P6SM SCT020 BKN050=



000
FTUS41 KCLE 030257 AAB
TAFCLE
TAF AMD
KCLE 030257Z 0303/0406 03006KT P6SM SCT070
     FM030600 03006KT P6SM SCT020 BKN070
      TEMPO 0308/0312 4SM BR BKN025
     FM031600 34008KT P6SM BKN050=



000
FTUS41 KCLE 030242 AAA
TAFMFD
TAF AMD
KMFD 030242Z 0303/0324 02005KT P6SM SCT012 OVC060
     FM030500 02005KT 5SM BR BKN012
     FM031500 34006KT P6SM SCT012 OVC040=



000
FTUS41 KCLE 030232 AAC
TAFFDY
TAF AMD
KFDY 030232Z 0303/0324 04006KT P6SM BKN012 OVC060
      TEMPO 0303/0307 SCT012
     FM031800 34004KT P6SM SCT012 BKN060=



000
FTUS41 KCLE 030203 AAB
TAFFDY
TAF AMD
KFDY 030203Z 0302/0324 04006KT P6SM OVC060
     FM030500 04006KT P6SM BKN020 OVC060
      TEMPO 0308/0312 4SM BR
     FM031800 34004KT P6SM BKN060=



000
FTUS41 KCLE 030203 AAB
TAFFDY
TAF AMD
KFDY 030203Z 0302/0324 04006KT P6SM OVC060
     FM030500 04006KT P6SM BKN020 OVC060
      TEMPO 0308/0312 4SM BR
     FM031800 34004KT P6SM BKN060=



000
FTUS41 KCLE 030202 AAA
TAFTOL
TAF AMD
KTOL 030202Z 0302/0324 03006KT P6SM OVC060
     FM030600 03006KT P6SM BKN025 OVC060
      TEMPO 0308/0312 4SM BR
     FM031800 34006KT P6SM BKN060=



000
FTUS41 KCLE 030020 AAA
TAFYNG
TAF AMD
KYNG 030020Z 0300/0324 01008KT P6SM BKN012 OVC080
      TEMPO 0301/0304 SCT012
     FM030600 02003KT 4SM BR OVC007
     FM031500 34004KT P6SM SCT007 OVC012=



000
FTUS41 KCLE 030000 AAA
TAFFDY
TAF AMD
KFDY 030000Z 0300/0324 04006KT P6SM OVC020
      TEMPO 0309/0312 4SM BR
     FM031500 34004KT P6SM SCT018 OVC040=



    US Dept of Commerce
    National Oceanic and Atmospheric Administration
    National Weather Service
    1325 East West Highway
    Silver Spring, MD 20910
    Page Author: NWS Internet Services Team
Disclaimer
Information Quality
Credits
Glossary
Privacy Policy
Freedom of Information Act (FOIA)
About Us
Career Opportunities